Time Latitude Longitude Accuracy (66% radius in meters) Altitude (meters) Speed (km/hour) Bearing (degrees) Battery (%) GPS flag
09:02:57 53.026992 36.150670 2 -6.9 0.51369279623032 208.83999633789 88 1 delete
09:02:46 53.026963 36.150723 1 -8.6 0 64.220001220703 88 1 delete
09:02:34 53.026963 36.150723 1 -8.6 0 64.220001220703 88 1 delete
09:02:23 53.026963 36.150723 2 -8.6 0 64.220001220703 88 1 delete
09:02:11 53.026963 36.150723 1.7000000476837 -8.6 0 64.220001220703 88 1 delete
09:02:00 53.026963 36.150723 1.2000000476837 -8.6 0 64.220001220703 88 1 delete
09:01:48 53.026945 36.150653 2.5999999046326 -8.9 0.47097083926201 108.98000335693 88 1 delete
09:01:47 53.026942 36.150643 2.5 -8.9 0 130.50999450684 88 1 delete
09:01:35 53.026942 36.150553 3.2000000476837 -9.2 0 59.619998931885 88 1 delete
09:01:29 53.026922 36.150503 3.0999999046326 -9.4 0.44986721873283 60.080001831055 88 1 delete
09:01:24 53.026905 36.150460 3.0999999046326 -9.5 0.49876582622528 77.319999694824 88 1 delete
09:01:17 53.026877 36.150352 2.7999999523163 -9.8 0.30831861495972 60.630001068115 88 1 delete
09:01:09 53.026803 36.150258 2.2000000476837 -17.6 0 152.38000488281 88 1 delete
09:00:51 53.026800 36.150258 3.0999999046326 -19.1 0 205.35000610352 88 1 delete
09:00:50 53.026802 36.150260 3.0999999046326 -19.5 0.057134166359901 82.819999694824 88 1 delete
09:00:39 53.026793 36.150410 3.0999999046326 -39.5 0 244.17999267578 88 1 delete
09:00:28 53.026793 36.150410 3.2000000476837 -39.5 0 244.17999267578 88 1 delete
09:00:17 53.026793 36.150410 3.0999999046326 -39.5 0 244.17999267578 88 1 delete
09:00:04 53.026793 36.150410 3.0999999046326 -39.5 0 244.17999267578 88 1 delete
08:59:53 53.026793 36.150410 3 -39.5 0 244.17999267578 88 1 delete
08:59:51 53.026797 36.150418 3 -40.6 0 200.44999694824 88 1 delete
08:59:42 53.026827 36.150423 3 -44.9 0.85495358705521 192.32000732422 88 1 delete
08:59:35 53.026885 36.150453 3 -46.4 1.0114291906357 193.11999511719 88 1 delete
08:59:27 53.026953 36.150460 3.0999999046326 -46.7 0.95892751216888 183.75 88 1 delete
08:59:24 53.026978 36.150465 3.0999999046326 -47 0.77053916454315 173.39999389648 88 1 delete
08:59:16 53.027045 36.150512 3.0999999046326 -49.5 0.44729360938072 192.55999755859 88 1 delete
08:59:12 53.027063 36.150525 3.0999999046326 -50.4 0 192.14999389648 88 1 delete
08:59:05 53.027103 36.150567 3.0999999046326 -53 0.48538306355476 187.30999755859 88 1 delete
08:58:58 53.027138 36.150615 3 -55.8 0.53634053468704 217.57000732422 88 1 delete
08:58:54 53.027162 36.150655 3 -57.2 0.5301638841629 209.94999694824 88 1 delete
08:58:46 53.027210 36.150717 3.0999999046326 -60.4 0 201.66000366211 88 1 delete
08:58:43 53.027220 36.150740 3.0999999046326 -63 0.51575165987015 209.60000610352 88 1 delete
08:58:32 53.027270 36.150790 3.2000000476837 -67.7 0.77053916454315 197.80999755859 88 1 delete
08:58:30 53.027285 36.150802 3.2000000476837 -68.5 0.77774530649185 203.80999755859 88 1 delete
08:58:21 53.027343 36.150858 3.2000000476837 -72.2 0.48280945420265 183.55999755859 88 1 delete
08:58:18 53.027375 36.150862 3.2000000476837 -73.3 0.2383163869381 190.67999267578 88 1 delete
08:58:10 53.027427 36.150925 3.0999999046326 -83.1 0 256.23001098633 88 1 delete
08:57:58 53.027427 36.150925 3 -83.1 0 256.23001098633 88 1 delete
08:57:47 53.027427 36.150927 2.7999999523163 -85.2 0.74892085790634 85.230003356934 88 1 delete
08:57:39 53.027420 36.151015 2.7999999523163 -88.7 0.75818580389023 283.98999023438 88 1 delete
08:57:29 53.027452 36.151120 2.7999999523163 -93.4 0.63259363174438 191.74000549316 88 1 delete
08:57:26 53.027472 36.151145 2.9000000953674 -95.3 0.57854777574539 221.32000732422 88 1 delete
08:57:12 53.027527 36.151270 2.9000000953674 -104.4 1.5292397737503 238.46000671387 88 1 delete
08:57:05 53.027560 36.151423 2.9000000953674 -107.8 1.3928383588791 262.73999023438 88 1 delete
08:56:58 53.027607 36.151563 2.9000000953674 -111.9 0.96613359451294 222.96000671387 88 1 delete
08:56:49 53.027662 36.151697 2.9000000953674 -119.3 0.40766000747681 229.53999328613 88 1 delete
08:56:35 53.027713 36.151822 2.9000000953674 -124.4 0.6264169216156 211.60000610352 88 1 delete
08:56:19 53.027750 36.151943 2.9000000953674 -135.3 0 199.61999511719 88 1 delete
08:56:09 53.027755 36.151957 2.9000000953674 -138 0.47302973270416 331.66000366211 88 1 delete
08:55:55 53.027732 36.152002 3 -147.4 0 244.24000549316 88 1 delete